Time;durP1;ratioP1;P1;durP2;ratioP2;P2;SDS_P1;SDS_P2;PMS_P1;PMS_P2;Temp;Humidity;BMP_temperature;BMP_pressure;BME280_temperature;BME280_humidity;BME280_pressure;Samples;Min_cycle;Max_cycle;Signal;HPM_P1;HPM_P2
2022/09/09 00:00:36;;;;;;;3.57;0.77;;;15.60;86.40;;;;;;5034210;28;20179;-61
2022/09/09 00:03:19;;;;;;;9.53;1.03;;;15.50;86.70;;;;;;5034225;28;20192;-62
2022/09/09 00:06:12;;;;;;;4.97;0.90;;;15.50;87.00;;;;;;5034481;28;20211;-61
2022/09/09 00:08:47;;;;;;;5.07;1.13;;;15.50;87.10;;;;;;5034821;28;20179;-61
2022/09/09 00:11:21;;;;;;;1.10;0.90;;;15.50;87.50;;;;;;5026839;28;20261;-61
2022/09/09 00:13:53;;;;;;;1.97;0.73;;;15.40;87.60;;;;;;5030362;28;20297;-62
2022/09/09 00:16:30;;;;;;;5.20;1.33;;;15.50;87.60;;;;;;5026272;28;20184;-61
2022/09/09 00:19:08;;;;;;;4.00;1.03;;;15.50;87.70;;;;;;5033620;28;20175;-61
2022/09/09 00:21:38;;;;;;;1.43;0.90;;;15.40;87.30;;;;;;5034359;28;20194;-61
2022/09/09 00:24:25;;;;;;;1.17;1.07;;;15.40;87.60;;;;;;5035253;28;20266;-61
2022/09/09 00:26:57;;;;;;;6.90;1.47;;;15.30;87.60;;;;;;5034239;28;20183;-61
2022/09/09 00:29:45;;;;;;;6.50;1.30;;;15.30;87.30;;;;;;5067119;28;20198;-61
2022/09/09 00:32:18;;;;;;;3.27;1.13;;;15.30;87.40;;;;;;5033640;28;20227;-61
2022/09/09 00:35:15;;;;;;;5.77;1.30;;;15.20;87.50;;;;;;5034840;28;20270;-61
2022/09/09 00:37:42;;;;;;;11.83;1.70;;;15.10;87.60;;;;;;5058503;28;20179;-61
2022/09/09 00:40:29;;;;;;;3.30;1.00;;;15.10;87.90;;;;;;5033978;28;20202;-61
2022/09/09 00:43:02;;;;;;;4.67;1.30;;;15.20;88.10;;;;;;5033725;28;20262;-61
2022/09/09 00:45:43;;;;;;;1.30;1.07;;;15.20;88.10;;;;;;5033425;28;20186;-61
2022/09/09 00:48:11;;;;;;;6.80;1.23;;;15.20;87.70;;;;;;5034513;28;20182;-61
2022/09/09 00:50:46;;;;;;;2.87;1.20;;;15.10;87.80;;;;;;5039308;28;20661;-61
2022/09/09 00:53:37;;;;;;;3.60;1.40;;;15.10;87.80;;;;;;5033031;28;20203;-61
2022/09/09 00:56:13;;;;;;;1.87;1.20;;;15.00;87.50;;;;;;5032003;28;20600;-61
2022/09/09 00:58:39;;;;;;;5.37;1.40;;;15.00;87.60;;;;;;5028854;28;20183;-61
2022/09/09 01:01:12;;;;;;;2.73;0.90;;;15.00;87.50;;;;;;5011234;28;20189;-61
2022/09/09 01:03:55;;;;;;;7.87;1.67;;;15.00;87.80;;;;;;5044834;28;20187;-61
2022/09/09 01:06:31;;;;;;;3.57;1.33;;;15.00;87.70;;;;;;5037623;28;20175;-61
2022/09/09 01:09:21;;;;;;;1.80;1.10;;;14.90;87.60;;;;;;5033860;28;20191;-61
2022/09/09 01:11:55;;;;;;;3.47;0.97;;;14.90;87.80;;;;;;5021721;28;20230;-61
2022/09/09 01:14:30;;;;;;;2.53;1.17;;;14.80;87.60;;;;;;5018296;28;20198;-61
2022/09/09 01:17:05;;;;;;;2.40;1.30;;;14.80;87.70;;;;;;5023707;28;20180;-61
2022/09/09 01:20:10;;;;;;;4.63;1.20;;;14.80;88.10;;;;;;5032656;28;20190;-61
2022/09/09 01:22:52;;;;;;;5.53;1.50;;;14.80;87.80;;;;;;5030970;28;20278;-61
2022/09/09 01:25:45;;;;;;;3.20;1.20;;;14.80;87.70;;;;;;5033548;28;20188;-61
2022/09/09 01:28:21;;;;;;;2.20;1.13;;;14.80;87.90;;;;;;5025680;28;20189;-61
2022/09/09 01:30:46;;;;;;;1.23;1.10;;;14.80;88.00;;;;;;5026947;28;20295;-61
2022/09/09 01:33:17;;;;;;;1.60;1.00;;;14.80;87.90;;;;;;5012657;28;20283;-61
2022/09/09 01:35:57;;;;;;;3.40;1.50;;;14.90;87.90;;;;;;5048083;28;20185;-61
2022/09/09 01:38:24;;;;;;;4.43;1.33;;;14.80;87.70;;;;;;5057417;28;20191;-61
2022/09/09 01:40:52;;;;;;;2.90;1.20;;;14.70;87.50;;;;;;5031211;28;20190;-61
2022/09/09 01:43:22;;;;;;;3.20;1.60;;;14.70;87.50;;;;;;5066145;28;20189;-61
2022/09/09 01:45:50;;;;;;;4.47;1.50;;;14.60;87.60;;;;;;5016360;28;20198;-61
2022/09/09 01:48:17;;;;;;;3.40;1.70;;;14.60;87.70;;;;;;5039955;28;20175;-61
2022/09/09 01:50:43;;;;;;;3.17;1.47;;;14.60;88.00;;;;;;5032413;28;20214;-61
2022/09/09 01:53:09;;;;;;;3.87;1.60;;;14.70;88.00;;;;;;5048424;28;20208;-61
2022/09/09 01:55:40;;;;;;;2.23;1.60;;;14.80;88.00;;;;;;5032641;28;20192;-61
2022/09/09 01:58:12;;;;;;;3.27;1.80;;;14.80;87.90;;;;;;5048917;28;20192;-61
2022/09/09 02:00:44;;;;;;;3.77;1.93;;;14.90;88.00;;;;;;5034005;28;20264;-61
2022/09/09 02:03:28;;;;;;;1.90;1.43;;;15.00;87.80;;;;;;5033061;28;20191;-61
2022/09/09 02:06:37;;;;;;;2.60;2.07;;;14.90;87.80;;;;;;5028884;28;20207;-61
2022/09/09 02:09:06;;;;;;;4.30;2.10;;;14.90;87.50;;;;;;4991812;28;20189;-61
2022/09/09 02:11:33;;;;;;;5.53;1.70;;;14.90;87.40;;;;;;5030697;28;20195;-61
2022/09/09 02:14:23;;;;;;;1.97;1.80;;;14.80;87.60;;;;;;5065803;28;20214;-61
2022/09/09 02:17:03;;;;;;;5.57;2.00;;;14.90;87.80;;;;;;5027564;28;20180;-61
2022/09/09 02:19:45;;;;;;;5.97;2.30;;;14.80;87.70;;;;;;5032089;28;20186;-61
2022/09/09 02:22:12;;;;;;;6.00;1.60;;;14.80;87.50;;;;;;5019685;28;20183;-61
2022/09/09 02:24:39;;;;;;;2.27;1.70;;;14.70;87.70;;;;;;5032940;28;20241;-61
2022/09/09 02:27:09;;;;;;;4.40;1.90;;;14.60;87.50;;;;;;5030967;28;20183;-61
2022/09/09 02:29:38;;;;;;;6.93;2.20;;;14.60;87.70;;;;;;5045754;28;20192;-61
2022/09/09 02:32:09;;;;;;;3.03;2.00;;;14.60;87.80;;;;;;5059918;28;20224;-61
2022/09/09 02:34:39;;;;;;;3.10;1.90;;;14.50;88.00;;;;;;5024843;28;20206;-61
2022/09/09 02:37:07;;;;;;;4.07;2.50;;;14.60;88.20;;;;;;5042182;28;20183;-61
2022/09/09 02:39:33;;;;;;;3.90;2.00;;;14.60;88.30;;;;;;5032113;28;20179;-61
2022/09/09 02:41:59;;;;;;;3.33;2.20;;;14.60;88.50;;;;;;5049186;28;20266;-61
2022/09/09 02:44:25;;;;;;;3.97;1.97;;;14.70;88.40;;;;;;5039321;28;20220;-61
2022/09/09 02:47:22;;;;;;;4.93;2.37;;;14.80;88.30;;;;;;5031935;28;20245;-61
2022/09/09 02:49:53;;;;;;;2.80;1.80;;;14.80;88.20;;;;;;5032280;28;20245;-61
2022/09/09 02:52:58;;;;;;;6.27;2.27;;;14.70;88.20;;;;;;5033187;28;20214;-61
2022/09/09 02:55:56;;;;;;;6.00;2.57;;;14.70;88.10;;;;;;5009238;28;20279;-61
2022/09/09 02:58:23;;;;;;;2.43;2.23;;;14.70;88.20;;;;;;5028899;28;20191;-61
2022/09/09 03:00:50;;;;;;;3.63;2.50;;;14.70;88.50;;;;;;5035585;28;20192;-61
2022/09/09 03:03:17;;;;;;;1.80;1.70;;;14.70;88.50;;;;;;5032755;28;20195;-61
2022/09/09 03:05:44;;;;;;;5.03;1.90;;;14.70;88.70;;;;;;5032691;28;20195;-61
2022/09/09 03:08:11;;;;;;;4.53;1.67;;;14.80;88.70;;;;;;5048632;28;20226;-61
2022/09/09 03:10:36;;;;;;;3.53;2.33;;;14.80;88.50;;;;;;5014939;28;20199;-62
2022/09/09 03:13:05;;;;;;;6.13;2.03;;;14.80;88.70;;;;;;5019888;28;20208;-61
2022/09/09 03:15:31;;;;;;;1.90;1.80;;;14.80;88.80;;;;;;5035146;28;20558;-61
2022/09/09 03:17:58;;;;;;;4.30;2.93;;;14.80;88.60;;;;;;5035665;28;20198;-61
2022/09/09 03:20:25;;;;;;;3.93;2.27;;;14.80;88.70;;;;;;5031846;28;20191;-61
2022/09/09 03:22:53;;;;;;;7.90;2.37;;;14.80;88.80;;;;;;5028194;28;20281;-61
2022/09/09 03:25:18;;;;;;;4.33;2.40;;;14.90;88.60;;;;;;5018752;28;20192;-61
2022/09/09 03:27:44;;;;;;;3.53;3.00;;;14.90;88.60;;;;;;5016320;28;20337;-61
2022/09/09 03:30:10;;;;;;;4.93;2.37;;;15.00;88.60;;;;;;5024287;28;20245;-61
2022/09/09 03:32:36;;;;;;;3.30;2.20;;;15.00;88.50;;;;;;5035081;28;20237;-61
2022/09/09 03:35:02;;;;;;;4.00;2.43;;;15.00;88.50;;;;;;5018865;28;20193;-61
2022/09/09 03:37:28;;;;;;;3.47;1.90;;;15.00;88.50;;;;;;5051951;28;20195;-61
2022/09/09 03:39:54;;;;;;;3.67;2.07;;;15.00;88.10;;;;;;5018406;28;20188;-61
2022/09/09 03:42:20;;;;;;;5.60;2.40;;;15.00;88.10;;;;;;5032466;28;20290;-61
2022/09/09 03:44:49;;;;;;;5.53;2.40;;;14.90;87.90;;;;;;5031314;28;20209;-61
2022/09/09 03:47:19;;;;;;;2.40;2.20;;;14.90;88.10;;;;;;5035038;28;20190;-61
2022/09/09 03:49:46;;;;;;;4.00;2.30;;;14.80;88.20;;;;;;5035169;28;20195;-61
2022/09/09 03:52:12;;;;;;;4.10;2.20;;;14.80;88.30;;;;;;5041043;28;20706;-61
2022/09/09 03:54:39;;;;;;;4.97;2.83;;;14.80;88.50;;;;;;5015998;28;20210;-61
2022/09/09 03:57:04;;;;;;;3.93;2.33;;;14.80;88.30;;;;;;5015888;28;20286;-61
2022/09/09 03:59:30;;;;;;;2.20;2.00;;;14.80;88.10;;;;;;5032399;28;20276;-61
2022/09/09 04:01:58;;;;;;;7.97;2.50;;;14.80;88.00;;;;;;5034118;28;20196;-61
2022/09/09 04:04:24;;;;;;;5.07;2.77;;;14.80;88.20;;;;;;5031826;28;20187;-61
2022/09/09 04:06:50;;;;;;;2.77;2.57;;;14.80;87.80;;;;;;5019692;28;20378;-61
2022/09/09 04:09:16;;;;;;;3.77;2.60;;;14.80;88.00;;;;;;5017507;28;20192;-61
2022/09/09 04:11:42;;;;;;;4.50;2.70;;;14.80;87.90;;;;;;5030832;28;20203;-61
2022/09/09 04:14:07;;;;;;;6.77;2.73;;;14.80;87.70;;;;;;5017280;28;20203;-61
2022/09/09 04:16:34;;;;;;;3.07;2.60;;;14.70;87.80;;;;;;5032899;28;20273;-61
2022/09/09 04:18:59;;;;;;;5.80;2.77;;;14.70;88.00;;;;;;5034375;28;20207;-61
2022/09/09 04:21:26;;;;;;;2.63;2.43;;;14.70;88.00;;;;;;5050843;28;20211;-61
2022/09/09 04:23:51;;;;;;;3.73;2.50;;;14.70;88.10;;;;;;5033923;28;20241;-61
2022/09/09 04:26:17;;;;;;;4.17;2.60;;;14.70;87.90;;;;;;5049688;28;20184;-61
2022/09/09 04:28:43;;;;;;;5.30;2.90;;;14.60;88.10;;;;;;5027355;28;20188;-61
2022/09/09 04:31:15;;;;;;;5.30;2.40;;;14.60;88.30;;;;;;5032799;28;20222;-61
2022/09/09 04:33:41;;;;;;;4.77;2.70;;;14.50;88.40;;;;;;5033023;28;20207;-61
2022/09/09 04:36:07;;;;;;;7.30;2.77;;;14.60;88.60;;;;;;5034289;28;20209;-60
2022/09/09 04:38:33;;;;;;;3.93;2.27;;;14.50;88.60;;;;;;5029329;28;20254;-60
2022/09/09 04:40:58;;;;;;;5.57;2.73;;;14.50;88.60;;;;;;5027424;28;20202;-60
2022/09/09 04:43:27;;;;;;;3.33;2.70;;;14.50;88.60;;;;;;5033062;28;20237;-60
2022/09/09 04:45:53;;;;;;;3.50;2.50;;;14.50;88.70;;;;;;5018308;28;20199;-61
2022/09/09 04:48:19;;;;;;;3.63;2.67;;;14.60;88.90;;;;;;5033266;28;20193;-61
2022/09/09 04:51:08;;;;;;;3.47;2.60;;;14.60;88.80;;;;;;5029808;28;20210;-61
2022/09/09 04:53:34;;;;;;;3.93;2.53;;;14.50;88.80;;;;;;5029615;28;20203;-61
2022/09/09 04:56:09;;;;;;;6.20;2.60;;;14.50;89.20;;;;;;5017155;28;20596;-61
2022/09/09 04:58:36;;;;;;;3.20;2.90;;;14.50;89.10;;;;;;5033212;28;20182;-61
2022/09/09 05:01:10;;;;;;;5.57;2.80;;;14.60;89.10;;;;;;5031643;28;20276;-62
2022/09/09 05:03:37;;;;;;;3.17;2.63;;;14.60;89.10;;;;;;5024471;28;20190;-61
2022/09/09 05:06:09;;;;;;;4.17;2.80;;;14.70;89.20;;;;;;5017870;28;20198;-60
2022/09/09 05:08:38;;;;;;;5.53;2.47;;;14.80;89.10;;;;;;5031770;28;20194;-60
2022/09/09 05:11:13;;;;;;;4.33;2.50;;;14.80;89.00;;;;;;5046233;28;20238;-61
2022/09/09 05:13:38;;;;;;;2.90;2.70;;;14.80;88.90;;;;;;5032317;28;20222;-61
2022/09/09 05:16:04;;;;;;;3.33;3.00;;;14.80;88.90;;;;;;5049232;28;20188;-61
2022/09/09 05:18:30;;;;;;;2.70;2.50;;;14.80;88.80;;;;;;5029753;28;20183;-61
2022/09/09 05:21:00;;;;;;;2.40;2.20;;;14.80;88.80;;;;;;5012596;28;20275;-61
2022/09/09 05:23:26;;;;;;;5.20;3.10;;;14.80;88.80;;;;;;5016517;28;20212;-60
2022/09/09 05:25:58;;;;;;;4.63;2.93;;;14.80;88.80;;;;;;5028769;28;20234;-60
2022/09/09 05:28:27;;;;;;;3.23;2.93;;;14.80;88.90;;;;;;5061101;28;20237;-61
2022/09/09 05:31:03;;;;;;;4.10;2.67;;;14.90;88.90;;;;;;5041068;28;20192;-61
2022/09/09 05:33:29;;;;;;;2.90;2.70;;;14.90;89.00;;;;;;5028227;28;20570;-60
2022/09/09 05:36:20;;;;;;;3.43;2.27;;;15.00;89.00;;;;;;5031680;28;20253;-60
2022/09/09 05:38:46;;;;;;;4.13;3.23;;;15.00;89.10;;;;;;5033401;28;20270;-60
2022/09/09 05:41:15;;;;;;;5.63;2.83;;;15.10;89.30;;;;;;5044103;28;20237;-60
2022/09/09 05:43:42;;;;;;;8.07;2.93;;;15.10;89.10;;;;;;5064255;28;20183;-61
2022/09/09 05:46:10;;;;;;;3.33;2.80;;;15.10;89.10;;;;;;5037306;28;20196;-61
2022/09/09 05:48:38;;;;;;;3.20;2.90;;;15.20;89.00;;;;;;5031081;28;20193;-61
2022/09/09 05:51:06;;;;;;;3.00;2.70;;;15.20;89.00;;;;;;5033092;28;20190;-61
2022/09/09 05:53:34;;;;;;;3.33;3.03;;;15.10;89.00;;;;;;5031764;28;20246;-61
2022/09/09 05:56:11;;;;;;;2.93;2.73;;;15.20;89.10;;;;;;5016240;28;20196;-61
2022/09/09 05:58:38;;;;;;;2.93;2.73;;;15.20;89.10;;;;;;5029756;28;20176;-62
2022/09/09 06:01:09;;;;;;;3.03;2.80;;;15.30;89.00;;;;;;5032822;28;20183;-60
2022/09/09 06:03:36;;;;;;;4.30;2.73;;;15.30;89.00;;;;;;5024263;28;20218;-61
2022/09/09 06:06:05;;;;;;;3.47;3.17;;;15.30;89.00;;;;;;5033889;28;20187;-61
2022/09/09 06:08:36;;;;;;;3.13;2.83;;;15.30;88.90;;;;;;5029404;28;20194;-61
2022/09/09 06:11:08;;;;;;;3.00;2.80;;;15.40;89.00;;;;;;5031737;28;20214;-61
2022/09/09 06:13:34;;;;;;;3.30;3.00;;;15.50;88.90;;;;;;5032555;28;20211;-62
2022/09/09 06:16:00;;;;;;;3.90;2.50;;;15.50;88.70;;;;;;5032929;28;20183;-62
2022/09/09 06:18:26;;;;;;;3.40;2.70;;;15.60;88.50;;;;;;5031400;28;20253;-63
2022/09/09 06:21:18;;;;;;;4.43;2.90;;;15.60;88.60;;;;;;5014438;28;20227;-61
2022/09/09 06:23:44;;;;;;;4.83;2.37;;;15.70;88.60;;;;;;5027304;28;20187;-61
2022/09/09 06:26:24;;;;;;;3.00;2.70;;;15.70;88.50;;;;;;5017553;28;20206;-61
2022/09/09 06:28:52;;;;;;;5.17;2.50;;;15.70;88.50;;;;;;5034355;28;20197;-61
2022/09/09 06:31:23;;;;;;;4.40;2.77;;;15.80;88.40;;;;;;5016855;28;20262;-61
2022/09/09 06:33:54;;;;;;;4.33;2.50;;;15.80;88.50;;;;;;5025161;28;20207;-62
2022/09/09 06:36:29;;;;;;;3.53;3.23;;;15.80;88.40;;;;;;5033808;28;20218;-63
2022/09/09 06:38:55;;;;;;;3.20;2.67;;;15.80;88.40;;;;;;5033756;28;20184;-61
2022/09/09 06:41:22;;;;;;;2.97;2.60;;;15.80;87.50;;;;;;5034797;28;20183;-61
2022/09/09 06:43:48;;;;;;;2.53;2.33;;;15.80;87.70;;;;;;5016615;28;20237;-61
2022/09/09 06:46:18;;;;;;;5.17;3.17;;;15.80;86.40;;;;;;5066543;28;20207;-61
2022/09/09 06:48:45;;;;;;;3.27;2.50;;;15.90;86.90;;;;;;5035835;28;20186;-61
2022/09/09 06:51:13;;;;;;;7.80;3.00;;;16.00;87.10;;;;;;5032006;28;20186;-61
2022/09/09 06:53:40;;;;;;;3.70;3.40;;;16.00;87.40;;;;;;5033646;28;20218;-61
2022/09/09 06:56:27;;;;;;;4.90;3.23;;;16.10;87.60;;;;;;5028717;28;20183;-61
2022/09/09 06:58:55;;;;;;;5.63;2.73;;;16.20;87.40;;;;;;5035214;28;20306;-61
2022/09/09 07:01:23;;;;;;;2.63;2.43;;;16.20;87.50;;;;;;5013781;28;20194;-61
2022/09/09 07:03:54;;;;;;;3.60;2.80;;;16.20;87.20;;;;;;5031828;28;20272;-61
2022/09/09 07:06:28;;;;;;;3.77;2.70;;;16.20;84.50;;;;;;5032872;28;20186;-61
2022/09/09 07:08:56;;;;;;;3.17;2.33;;;16.20;84.10;;;;;;5032344;28;20224;-61
2022/09/09 07:11:23;;;;;;;5.93;2.47;;;16.20;83.90;;;;;;5033829;28;20214;-61
2022/09/09 07:13:49;;;;;;;4.23;3.00;;;16.20;83.70;;;;;;5034603;28;20211;-61
2022/09/09 07:16:17;;;;;;;4.57;2.50;;;16.30;84.20;;;;;;5014154;28;20185;-61
2022/09/09 07:18:44;;;;;;;2.50;2.30;;;16.30;84.80;;;;;;5035676;28;20191;-61
2022/09/09 07:21:14;;;;;;;4.80;2.63;;;16.30;85.40;;;;;;5030934;28;20202;-61
2022/09/09 07:23:41;;;;;;;2.37;2.17;;;16.40;83.30;;;;;;5035223;28;20192;-61
2022/09/09 07:26:11;;;;;;;3.80;2.43;;;16.30;81.90;;;;;;5025128;28;20211;-61
2022/09/09 07:28:38;;;;;;;2.97;2.40;;;16.30;81.50;;;;;;5033292;28;20191;-61
2022/09/09 07:31:05;;;;;;;2.60;2.40;;;16.30;80.60;;;;;;5034068;28;20229;-61
2022/09/09 07:33:34;;;;;;;2.63;2.20;;;16.30;82.00;;;;;;5033331;28;20214;-61
2022/09/09 07:36:24;;;;;;;3.73;3.03;;;16.40;82.10;;;;;;5035385;28;20179;-61
2022/09/09 07:38:52;;;;;;;2.87;2.43;;;16.40;82.60;;;;;;5032565;28;20187;-60
2022/09/09 07:41:22;;;;;;;2.60;2.40;;;16.40;82.10;;;;;;5035404;28;20182;-60
2022/09/09 07:43:49;;;;;;;2.37;2.17;;;16.50;82.70;;;;;;5020629;28;20187;-59
2022/09/09 07:46:16;;;;;;;4.40;2.70;;;16.50;83.30;;;;;;5014690;28;20233;-60
2022/09/09 07:48:51;;;;;;;5.30;2.60;;;16.60;83.70;;;;;;5035011;28;20225;-60
2022/09/09 07:51:19;;;;;;;3.53;3.13;;;16.60;82.70;;;;;;5031231;28;20187;-61
2022/09/09 07:53:51;;;;;;;2.80;2.30;;;16.60;82.90;;;;;;5034502;28;20207;-60
2022/09/09 07:56:18;;;;;;;3.03;2.30;;;16.60;82.10;;;;;;5044587;28;20218;-60
2022/09/09 07:58:48;;;;;;;3.57;2.60;;;16.60;82.70;;;;;;5000126;28;20187;-60
2022/09/09 08:01:20;;;;;;;3.83;2.80;;;16.60;82.60;;;;;;5066551;28;20196;-60
2022/09/09 08:03:52;;;;;;;4.60;2.50;;;16.60;83.00;;;;;;5029970;28;20217;-61
2022/09/09 08:06:17;;;;;;;2.60;2.40;;;16.60;81.20;;;;;;5028728;28;20291;-61
2022/09/09 08:08:43;;;;;;;4.13;2.60;;;16.60;82.10;;;;;;5034994;28;20239;-60
2022/09/09 08:11:12;;;;;;;6.00;2.80;;;16.60;82.70;;;;;;5047470;28;20274;-61
2022/09/09 08:13:38;;;;;;;2.80;2.50;;;16.70;83.40;;;;;;5029317;28;20211;-61
2022/09/09 08:16:16;;;;;;;3.53;2.00;;;16.70;83.70;;;;;;5027027;28;20188;-61
2022/09/09 08:18:42;;;;;;;3.27;2.63;;;16.70;84.20;;;;;;5037773;28;20186;-60
2022/09/09 08:21:11;;;;;;;2.40;2.20;;;16.80;84.40;;;;;;5050147;28;20199;-61
2022/09/09 08:23:39;;;;;;;3.83;3.13;;;16.80;84.70;;;;;;5014755;28;20286;-60
2022/09/09 08:26:14;;;;;;;4.43;2.73;;;16.80;84.40;;;;;;5034747;28;20222;-60
2022/09/09 08:28:41;;;;;;;3.13;2.83;;;16.90;84.90;;;;;;5033075;28;20211;-61
2022/09/09 08:31:11;;;;;;;3.57;2.53;;;17.00;85.00;;;;;;5014471;28;20287;-60
2022/09/09 08:33:38;;;;;;;2.70;2.47;;;17.00;85.10;;;;;;5029909;28;20207;-60
2022/09/09 08:36:06;;;;;;;6.33;2.73;;;17.00;84.90;;;;;;5017716;28;20193;-60
2022/09/09 08:38:32;;;;;;;2.80;2.60;;;17.00;85.10;;;;;;5012532;28;20223;-59
2022/09/09 08:41:10;;;;;;;2.23;2.03;;;17.00;85.00;;;;;;5050170;28;20187;-60
2022/09/09 08:43:36;;;;;;;2.83;2.43;;;17.10;85.10;;;;;;5029094;28;20279;-60
2022/09/09 08:46:05;;;;;;;4.17;2.70;;;17.10;85.10;;;;;;5050320;28;20282;-60
2022/09/09 08:49:01;;;;;;;3.20;2.90;;;17.10;85.30;;;;;;5032300;28;20275;-60
2022/09/09 08:51:31;;;;;;;7.90;2.70;;;17.10;84.50;;;;;;5030518;28;20195;-60
2022/09/09 08:54:00;;;;;;;2.70;2.50;;;17.10;84.10;;;;;;5032698;28;20218;-60
2022/09/09 08:56:28;;;;;;;2.87;2.60;;;17.20;84.50;;;;;;5033385;28;20179;-60
2022/09/09 08:58:56;;;;;;;3.83;3.43;;;17.20;84.70;;;;;;5021179;28;20206;-60
2022/09/09 09:01:35;;;;;;;3.23;2.90;;;17.30;84.80;;;;;;5033550;28;20187;-60
2022/09/09 09:04:27;;;;;;;3.07;2.77;;;17.20;84.60;;;;;;5033844;28;20191;-60
2022/09/09 09:07:27;;;;;;;3.17;2.87;;;17.20;82.80;;;;;;5040334;28;20193;-60
2022/09/09 09:10:15;;;;;;;4.53;2.77;;;17.30;83.90;;;;;;5031642;28;20226;-60
2022/09/09 09:12:45;;;;;;;5.70;2.63;;;17.30;83.90;;;;;;5033475;28;20187;-60
2022/09/09 09:15:36;;;;;;;4.63;2.93;;;17.40;84.20;;;;;;5047451;28;20199;-60
2022/09/09 09:18:04;;;;;;;6.47;2.50;;;17.40;83.40;;;;;;5029978;28;20186;-60
2022/09/09 09:20:47;;;;;;;3.73;3.13;;;17.40;79.90;;;;;;5043801;28;20223;-60
2022/09/09 09:23:22;;;;;;;3.30;2.53;;;17.40;80.10;;;;;;5033433;28;20191;-60
2022/09/09 09:25:49;;;;;;;3.33;2.50;;;17.50;79.70;;;;;;5030833;28;20266;-60
2022/09/09 09:28:24;;;;;;;6.10;2.67;;;17.50;78.90;;;;;;5027880;28;20233;-60
2022/09/09 09:31:18;;;;;;;2.40;2.20;;;17.50;78.70;;;;;;5033425;28;20178;-60
2022/09/09 09:33:55;;;;;;;3.83;2.57;;;17.60;80.00;;;;;;5029841;28;20215;-59
2022/09/09 09:36:33;;;;;;;3.27;2.40;;;17.80;79.80;;;;;;5032795;28;20240;-59
2022/09/09 09:39:01;;;;;;;2.60;2.40;;;17.80;79.90;;;;;;5031600;28;20198;-59
2022/09/09 09:41:43;;;;;;;4.07;2.67;;;17.90;79.50;;;;;;5016909;28;20281;-59
2022/09/09 09:44:41;;;;;;;4.83;2.10;;;18.00;78.50;;;;;;5021897;28;20188;-60
2022/09/09 09:47:16;;;;;;;2.87;2.10;;;18.00;79.00;;;;;;5021890;28;20202;-60
2022/09/09 09:49:56;;;;;;;2.53;2.20;;;18.00;78.70;;;;;;5029832;28;20336;-61
2022/09/09 09:52:28;;;;;;;3.60;2.53;;;18.20;80.10;;;;;;5033711;28;20187;-61
2022/09/09 09:54:55;;;;;;;3.83;2.20;;;18.20;79.90;;;;;;5022279;28;20210;-61
2022/09/09 09:57:29;;;;;;;2.63;2.40;;;18.30;77.70;;;;;;5032471;28;20195;-60
2022/09/09 10:00:11;;;;;;;3.37;2.70;;;18.40;77.40;;;;;;5046350;28;20198;-61
2022/09/09 10:02:40;;;;;;;2.63;2.37;;;18.50;78.20;;;;;;5036344;28;20187;-61
2022/09/09 10:05:12;;;;;;;3.93;2.50;;;18.60;78.70;;;;;;5018999;28;20200;-60
2022/09/09 10:07:38;;;;;;;2.33;2.13;;;18.70;77.90;;;;;;5037165;28;20180;-59
2022/09/09 10:10:06;;;;;;;2.20;2.00;;;18.70;77.30;;;;;;5065075;28;20272;-60
2022/09/09 10:12:31;;;;;;;1.73;1.63;;;18.70;75.40;;;;;;5035394;28;20182;-60
2022/09/09 10:15:13;;;;;;;4.53;1.87;;;18.80;74.30;;;;;;5032858;28;20273;-59
2022/09/09 10:18:02;;;;;;;1.83;1.70;;;18.90;75.50;;;;;;5021196;28;20278;-59
2022/09/09 10:20:45;;;;;;;1.60;1.50;;;18.90;74.30;;;;;;5033345;28;20183;-60
2022/09/09 10:23:21;;;;;;;4.53;1.87;;;19.00;72.70;;;;;;5035902;28;20210;-60
2022/09/09 10:25:59;;;;;;;2.07;1.50;;;19.10;73.40;;;;;;5024420;28;20187;-60
2022/09/09 10:28:35;;;;;;;1.90;1.50;;;19.20;75.40;;;;;;5034946;28;20261;-61
2022/09/09 10:31:33;;;;;;;2.23;1.77;;;19.30;73.10;;;;;;5035952;28;20186;-61
2022/09/09 10:34:31;;;;;;;2.37;1.90;;;19.30;75.00;;;;;;5068202;28;20248;-60
2022/09/09 10:36:58;;;;;;;4.53;1.73;;;19.40;75.40;;;;;;5036534;28;20191;-60
2022/09/09 10:39:40;;;;;;;2.67;1.97;;;19.40;73.90;;;;;;5019555;28;20210;-60
2022/09/09 10:42:16;;;;;;;1.70;1.60;;;19.50;74.20;;;;;;5017654;28;20205;-60
2022/09/09 10:45:17;;;;;;;2.33;1.60;;;19.60;75.40;;;;;;5019685;28;20186;-60
2022/09/09 10:47:55;;;;;;;1.50;1.40;;;19.70;74.30;;;;;;5035475;28;20191;-60
2022/09/09 10:50:29;;;;;;;3.03;1.47;;;19.70;73.40;;;;;;5025110;28;20176;-62
2022/09/09 10:53:31;;;;;;;1.57;1.30;;;19.70;70.10;;;;;;5022426;28;20183;-60
2022/09/09 10:56:04;;;;;;;2.07;1.70;;;19.70;72.90;;;;;;5026768;28;20183;-61
2022/09/09 10:58:43;;;;;;;2.00;1.67;;;19.70;71.10;;;;;;5021596;28;20191;-60
2022/09/09 11:01:40;;;;;;;1.70;1.60;;;19.70;72.60;;;;;;5034611;28;20230;-61
2022/09/09 11:04:16;;;;;;;3.23;1.90;;;19.70;71.70;;;;;;5051081;28;20184;-61
2022/09/09 11:06:47;;;;;;;2.00;1.70;;;19.60;71.40;;;;;;5036968;28;20206;-61
2022/09/09 11:09:21;;;;;;;2.83;1.70;;;19.60;72.40;;;;;;5033859;28;20205;-61
2022/09/09 11:11:54;;;;;;;2.70;1.60;;;19.60;70.90;;;;;;5025872;28;20247;-61
2022/09/09 11:14:41;;;;;;;4.37;2.10;;;19.60;69.10;;;;;;5033701;28;20290;-61
2022/09/09 11:17:13;;;;;;;5.73;1.93;;;19.50;70.80;;;;;;5036627;28;20187;-60
2022/09/09 11:19:41;;;;;;;2.80;1.60;;;19.50;72.80;;;;;;5036201;28;20204;-60
2022/09/09 11:22:29;;;;;;;3.00;1.80;;;19.40;72.30;;;;;;5049788;28;20278;-60
2022/09/09 11:25:13;;;;;;;2.80;1.80;;;19.40;71.90;;;;;;5027194;28;20256;-60
2022/09/09 11:27:58;;;;;;;3.47;1.80;;;19.40;73.30;;;;;;5033769;28;20179;-60
2022/09/09 11:30:33;;;;;;;2.37;1.80;;;19.40;74.40;;;;;;5033884;28;20175;-60
2022/09/09 11:33:13;;;;;;;2.50;1.80;;;19.40;76.70;;;;;;5034422;28;20276;-61
2022/09/09 11:36:00;;;;;;;2.87;1.70;;;19.30;75.50;;;;;;5035548;28;20179;-60
2022/09/09 11:38:28;;;;;;;4.50;1.70;;;19.30;76.80;;;;;;5048293;28;20219;-60
2022/09/09 11:41:15;;;;;;;4.13;2.00;;;19.30;75.70;;;;;;5034134;28;20185;-60
2022/09/09 11:43:45;;;;;;;2.13;1.73;;;19.30;76.50;;;;;;5021565;28;20175;-60
2022/09/09 11:46:12;;;;;;;1.80;1.70;;;19.30;76.10;;;;;;5035178;28;20305;-59
2022/09/09 11:48:43;;;;;;;5.40;1.97;;;19.30;75.10;;;;;;5034612;28;20250;-59
2022/09/09 11:51:25;;;;;;;2.23;1.80;;;19.30;75.40;;;;;;5068292;28;20179;-60
2022/09/09 11:54:01;;;;;;;1.83;1.67;;;19.30;74.90;;;;;;5034978;28;20215;-60
2022/09/09 11:56:45;;;;;;;2.37;1.90;;;19.40;74.00;;;;;;5035040;28;20270;-60
2022/09/09 11:59:24;;;;;;;1.70;1.60;;;19.50;75.20;;;;;;5026525;28;20245;-60
2022/09/09 12:01:59;;;;;;;2.43;1.60;;;19.50;74.30;;;;;;5046404;28;20187;-60
2022/09/09 12:04:25;;;;;;;3.17;1.50;;;19.60;74.50;;;;;;5048842;28;20182;-60
2022/09/09 12:07:04;;;;;;;2.83;1.27;;;19.60;74.20;;;;;;5028435;28;20196;-60
2022/09/09 12:09:51;;;;;;;2.50;1.47;;;19.70;71.00;;;;;;5033999;28;20187;-60
2022/09/09 12:12:29;;;;;;;1.50;1.40;;;19.70;72.10;;;;;;5047458;28;20192;-60
2022/09/09 12:15:07;;;;;;;1.73;1.40;;;19.80;72.60;;;;;;5033564;28;20213;-60
2022/09/09 12:17:54;;;;;;;2.60;1.60;;;19.80;72.80;;;;;;5034595;28;20179;-60
2022/09/09 12:20:40;;;;;;;1.30;1.20;;;19.80;72.50;;;;;;5028503;28;20187;-60
2022/09/09 12:23:36;;;;;;;1.43;1.30;;;19.80;70.70;;;;;;5046692;28;20191;-60
2022/09/09 12:26:19;;;;;;;3.13;1.47;;;19.80;71.60;;;;;;5027434;28;20253;-60
2022/09/09 12:29:19;;;;;;;1.03;1.00;;;19.80;70.30;;;;;;5025675;28;20185;-60
2022/09/09 12:32:06;;;;;;;1.43;0.90;;;19.90;68.90;;;;;;5063548;28;20364;-61
2022/09/09 12:34:47;;;;;;;1.07;0.90;;;19.80;70.10;;;;;;5029997;28;20282;-60
2022/09/09 12:37:43;;;;;;;2.57;1.47;;;19.80;69.60;;;;;;5022198;28;20187;-60
2022/09/09 12:40:24;;;;;;;2.30;1.07;;;19.80;69.70;;;;;;5024957;28;20214;-60
2022/09/09 12:42:50;;;;;;;1.20;1.10;;;19.90;69.90;;;;;;5032415;28;20186;-60
2022/09/09 12:45:30;;;;;;;1.30;1.00;;;19.80;69.30;;;;;;5030810;28;20187;-60
2022/09/09 12:48:08;;;;;;;4.50;1.13;;;19.80;69.90;;;;;;5029436;28;20179;-60
2022/09/09 12:50:54;;;;;;;2.73;1.40;;;19.80;68.20;;;;;;5033031;28;20277;-60
2022/09/09 12:53:31;;;;;;;3.40;1.33;;;19.90;69.40;;;;;;5030173;28;20215;-60
2022/09/09 12:56:03;;;;;;;4.43;1.60;;;19.90;71.40;;;;;;5028722;28;20179;-57
2022/09/09 12:58:32;;;;;;;4.47;2.00;;;19.90;73.00;;;;;;5033279;28;20207;-59
2022/09/09 13:00:59;;;;;;;20.10;4.00;;;19.90;73.20;;;;;;5033663;28;20198;-59
2022/09/09 13:03:26;;;;;;;4.50;1.20;;;20.00;73.30;;;;;;5023489;28;20199;-59
2022/09/09 13:05:53;;;;;;;2.03;1.30;;;19.90;72.60;;;;;;5050001;28;20194;-62
2022/09/09 13:08:20;;;;;;;2.80;1.50;;;19.90;73.50;;;;;;5032617;28;20195;-63
2022/09/09 13:11:07;;;;;;;2.60;1.10;;;19.90;73.80;;;;;;5031052;28;20285;-63
2022/09/09 13:13:38;;;;;;;3.07;1.23;;;19.90;73.70;;;;;;5032145;28;20198;-63
2022/09/09 13:16:08;;;;;;;2.50;1.30;;;19.80;69.30;;;;;;5033248;28;20191;-62
2022/09/09 13:18:40;;;;;;;1.13;0.90;;;19.80;71.40;;;;;;5030877;28;20190;-62
2022/09/09 13:21:06;;;;;;;1.47;1.23;;;19.80;70.40;;;;;;5032529;28;20226;-62